Welcome to our new website - Welkom op onze vernieuwde website - Bienvenue sur notre nouveau site web - Willkommen auf unserer neuen Website
Check our progress frequently. Prüfen Sie unsere Fortschritte regelmäßig. Consultez notre progression fréquemment. Komt u straks nog eens

KNMI Weersverwachting is alleen beschikbaar in de Nederlandse Taal, Ongeacht welke taal u kiest.
KNMI weather forecast is only available in the Dutch language, No matter what language you choose.







Meteo Oudkarspel - De weer weet site voor Langedijk

Blijf op de hoogte van het actuele weer, Keep up to date with the current weather.



Lokaal brandgevaar
CBI


Regionaal natuur brand risico: Meer informatie


Mijn Webcam 1 Meer informatie My webcam


Mijn Webcam 2 Meer informatie My webcam 2


Onweer radar Meer informatie blitzortung!


Regen radar Meer informatie rain snow radar


Bezoek onze andere website:

Template - Davis WeatherLink Version
Vantage Veu

Template - Meteotemplate

Template - HomeWeatherStation

PDøROK Multimedia

Meteo Broek Op Langedijk

Lief LangedijkLief Langedijk

Dé fietsenmaker van Langedijk en omstrekenAxel Noort dé fietsenmaker

Ijsvereniging Volharding

Meteo Tuitjenhorn

Meteo Delfzijl

Meteo SauwerdMeteo Sauwerd

WeerstationMeteo Sauwerd

Weerstation Noordbergum

Weerstation ParkstadWeerstation Parkstad

Norderney



Het weer levert geen direct gevaar op.    Er zijn geen waarschuwingen afgegeven.

METAR rapporten vliegvelden

   
EHKD - De Kooy (navy), Netherlands
Afstand tot: N 23 km
Gewijzigd: 15-Sep-2019 15:49
Bewolking  
Bewolking  
   Wind: WNW 22.2 km/h
Wind: WNW 22.2 km/h
Temperatuur: 18°C
Dauwpunt: 15°C
Vochtigheid: 83%
Barometer: 1022 hPa
Bewolking: Bewolking
Zicht: meer dan 10 km
Bewolking: Gedeeltelijk bewolkt 1300 ft,
Bewolking 3000 ft
EHKD 151349Z AUTO 29012KT 9999 SCT013 OVC030 18/15 Q1022 GRN 27012KT 9999 FEW015 SCT030 BKN050 TEMPO SCT012 BKN015
EHAM - Amsterdam/Schiph, Netherlands
Afstand tot: Z 44 km
Gewijzigd: 15-Sep-2019 15:25
Licht bewolkt  
Licht bewolkt  
   Wind: WNW 18.5 km/h
Wind: WNW 18.5 km/h
Temperatuur: 20°C
Dauwpunt: 15°C
Vochtigheid: 73%
Barometer: 1022 hPa
Bewolking: Licht bewolkt
Zicht: meer dan 10 km
Bewolking: Licht bewolkt 1800 ft
EHAM 151325Z 29010KT 9999 FEW018 20/15 Q1022 NOSIG
EHQE - Hoorn-A Sea, Netherlands
Afstand tot: WNW 50 km
Gewijzigd: 15-Sep-2019 15:25
  
  
   Wind: Westen 29.6 km/h
Wind: Westen 29.6 km/h
Temperatuur: 17°C
Dauwpunt: 14°C
Vochtigheid: 83%
Barometer: 1022 hPa
Zicht: meer dan 10 km
EHQE 151325Z AUTO 27016KT 9999 ////// 17/14 Q1022 W///H///
EHVL - Vlieland Island, Netherlands
Afstand tot: N 58 km
Gewijzigd: 15-Sep-2019 15:28
Bewolking  
Bewolking  
   Wind: WNW 33.3 km/h
Wind: WNW 33.3 km/h
Temperatuur: 17°C
Dauwpunt: 14°C
Vochtigheid: 83%
Barometer: 1021 hPa
Bewolking: Bewolking
Zicht: meer dan 10 km
Bewolking: Grotendeels bewolkt 1500 ft,
Grotendeels bewolkt 1800 ft,
Bewolking 2300 ft
EHVL 151328Z AUTO 29018KT 9999 BKN015 BKN018 OVC023 17/14 Q1021 WHT
EHLW - Leeuwarden Rnlaf, Netherlands
Afstand tot: NO 85 km
Gewijzigd: 15-Sep-2019 15:45
Bewolking  
Bewolking  
   Wind: Westen 22.2 km/h
Wind: Westen 22.2 km/h
Temperatuur: 18°C
Dauwpunt: 14°C
Vochtigheid: 78%
Barometer: 1021 hPa
Bewolking: Bewolking
Zicht: meer dan 10 km
Bewolking: Licht bewolkt 1600 ft,
Bewolking 2900 ft
EHLW 151345Z AUTO 28012KT 250V310 9999 FEW016 OVC029 18/14 Q1021 BLU
EHRD - Rotterdam Airpor, Netherlands
Afstand tot: ZZW 88 km
Gewijzigd: 15-Sep-2019 15:25
Gedeeltelijk bewolkt  
Gedeeltelijk bewolkt  
   Wind: Westen 11.1 km/h
Wind: Westen 11.1 km/h
Temperatuur: 20°C
Dauwpunt: 14°C
Vochtigheid: 69%
Barometer: 1023 hPa
Bewolking: Gedeeltelijk bewolkt
Zicht: meer dan 10 km
Bewolking: Gedeeltelijk bewolkt
EHRD 151325Z AUTO 27006KT 220V330 9999 NSC 20/14 Q1023 NOSIG
EHKV - K14-Fa-1c Sea, Netherlands
Afstand tot: NW 100 km
Gewijzigd: 15-Sep-2019 15:25
Grotendeels bewolkt  
Grotendeels bewolkt  
   Wind: WNW 27.8 km/h
Wind: WNW 27.8 km/h
Temperatuur: 16°C
Dauwpunt: 14°C
Vochtigheid: 88%
Barometer: 1022 hPa
Bewolking: Grotendeels bewolkt
Zicht: meer dan 10 km
Bewolking: Licht bewolkt 800 ft,
Gedeeltelijk bewolkt 1100 ft,
Grotendeels bewolkt 1500 ft
EHKV 151325Z AUTO 30015KT 230V340 9999 FEW008 SCT011 BKN015 16/14 Q1022 W///H///
EHMG - L9-Ff-1 Sea, Netherlands
Afstand tot: N 101 km
Gewijzigd: 15-Sep-2019 15:25
Gedeeltelijk bewolkt  
Gedeeltelijk bewolkt  
   Wind: WNW 50 km/h
Wind: WNW 50 km/h
Temperatuur: 16°C
Dauwpunt: 11°C
Vochtigheid: 72%
Barometer: 1022 hPa
Bewolking: Gedeeltelijk bewolkt
Zicht: meer dan 10 km
Bewolking: Licht bewolkt 1300 ft,
Gedeeltelijk bewolkt 2200 ft
EHMG 151325Z AUTO 30027KT 9999 FEW013 SCT022 16/11 Q1022 W///H///
EHDL - Deelen Rnlafb, Netherlands
Afstand tot: ZO 102 km
Gewijzigd: 15-Sep-2019 15:25
Bewolking  
Bewolking  
   Wind: Westen 18.5 km/h
Wind: Westen 18.5 km/h
Temperatuur: 24°C
Dauwpunt: 11°C
Vochtigheid: 44%
Barometer: 1022 hPa
Bewolking: Bewolking
Zicht: meer dan 10 km
Bewolking: Bewolking 27000 ft
EHDL 151325Z AUTO 26010KT 190V340 9999 OVC270 24/11 Q1022 BLU
EHPG - P11-B Sea, Netherlands
Afstand tot: WZW 106 km
Gewijzigd: 15-Sep-2019 15:25
  
  
   Wind: Kalm
Wind: Kalm
EHPG 151325Z AUTO ///10KT 9999 NSC 18/14 Q1023 W///H///
EHMA - Awg-1 Sea, Netherlands
Afstand tot: NO 116 km
Gewijzigd: 15-Sep-2019 15:25
Grotendeels bewolkt  
Grotendeels bewolkt  
   Wind: WNW 42.6 km/h
Wind: WNW 42.6 km/h
Temperatuur: 16°C
Dauwpunt: 14°C
Vochtigheid: 88%
Barometer: 1020 hPa
Bewolking: Grotendeels bewolkt
Zicht: 9 km
Bewolking: Licht bewolkt 1200 ft,
Grotendeels bewolkt 1500 ft,
Grotendeels bewolkt 2100 ft
EHMA 151325Z AUTO 30023KT 9000 FEW012 BKN015 BKN021 16/14 Q1020 W///H///
EHSC - Goeree Le Sea, Netherlands
Afstand tot: ZW 116 km
Gewijzigd: 15-Sep-2019 15:25
  
  
   Wind: WNW 22.2 km/h
Wind: WNW 22.2 km/h
Temperatuur: 18°C
Dauwpunt: 14°C
Vochtigheid: 78%
Barometer: 1023 hPa
Zicht: meer dan 10 km
EHSC 151325Z AUTO 29012KT 9999 ///////// 18/14 Q1023 W19/H8
EHJR - K13-A Sea, Netherlands
Afstand tot: WNW 120 km
Gewijzigd: 15-Sep-2019 15:25
  
  
   Wind: WNW 31.5 km/h
Wind: WNW 31.5 km/h
Temperatuur: 17°C
Dauwpunt: 14°C
Vochtigheid: 83%
Barometer: 1027 hPa
EHJR 151325Z AUTO 30017KT //// // ///////// 17/14 Q1027 RE// W18/H11
EHGG - Groningen/Eelde, Netherlands
Afstand tot: ONO 126 km
Gewijzigd: 15-Sep-2019 15:25
Bewolking  
Bewolking  
   Wind: Westen 18.5 km/h
Wind: Westen 18.5 km/h
Temperatuur: 19°C
Dauwpunt: 13°C
Vochtigheid: 68%
Barometer: 1021 hPa
Bewolking: Bewolking
Zicht: meer dan 10 km
Bewolking: Licht bewolkt 2300 ft,
Gedeeltelijk bewolkt 2700 ft,
Bewolking 3200 ft
EHGG 151325Z AUTO 28010KT 240V320 9999 FEW023 SCT027 OVC032 19/13 Q1021
EHGR - Gilze-Rijen Rnla, Netherlands
Afstand tot: Z 128 km
Gewijzigd: 15-Sep-2019 15:25
Helder  
Helder  
   Wind: Westen 14.8 km/h
Wind: Westen 14.8 km/h
Temperatuur: 24°C
Dauwpunt: 10°C
Vochtigheid: 41%
Barometer: 1022 hPa
Bewolking: Helder
Zicht: meer dan 10 km
Bewolking: Helder
EHGR 151325Z AUTO 26008KT 210V330 9999 NCD 24/10 Q1022 BLU
EHSA - Euro Platform, Netherlands
Afstand tot: ZW 130 km
Gewijzigd: 15-Sep-2019 15:25
  
  
   Wind: Westen 16.7 km/h
Wind: Westen 16.7 km/h
Temperatuur: 18°C
Dauwpunt: 14°C
Vochtigheid: 78%
Barometer: 1023 hPa
Zicht: meer dan 10 km
EHSA 151325Z AUTO 28009KT 9999 ///////// 18/14 Q1023 W16/H7
EHVK - Volkel Rnlafb, Netherlands
Afstand tot: ZZO 135 km
Gewijzigd: 15-Sep-2019 15:25
Helder  
Helder  
   Wind: Westen 16.7 km/h
Wind: Westen 16.7 km/h
Temperatuur: 24°C
Dauwpunt: 6°C
Vochtigheid: 31%
Barometer: 1022 hPa
Bewolking: Helder
Zicht: meer dan 10 km
Bewolking: Helder
EHVK 151325Z AUTO 26009KT 220V280 9999 NCD 24/06 Q1022 BLU
EHWO - Woensdrecht Rnla, Netherlands
Afstand tot: ZZW 144 km
Gewijzigd: 15-Sep-2019 15:25
Bewolking  
Bewolking  
   Wind: WNW 18.5 km/h
Wind: WNW 18.5 km/h
Temperatuur: 23°C
Dauwpunt: 9°C
Vochtigheid: 41%
Barometer: 1022 hPa
Bewolking: Bewolking
Zicht: meer dan 10 km
Bewolking: Bewolking 42000 ft
EHWO 151325Z AUTO 29010KT 210V330 9999 OVC420 23/09 Q1022 BLU
EHEH - Eindhoven Rnlafb, Netherlands
Afstand tot: ZZO 146 km
Gewijzigd: 15-Sep-2019 15:25
Licht bewolkt  
Licht bewolkt  
   Wind: Westen 14.8 km/h
Wind: Westen 14.8 km/h
Temperatuur: 25°C
Dauwpunt: 7°C
Vochtigheid: 32%
Barometer: 1022 hPa
Bewolking: Licht bewolkt
Zicht: meer dan 10 km
Bewolking: Licht bewolkt 41000 ft
EHEH 151325Z AUTO 28008KT 210V310 9999 FEW410 25/07 Q1022 BLU 25009KT CAVOK
EDLV - Niederrhein, Germany
Afstand tot: ZO 154 km
Gewijzigd: 15-Sep-2019 15:20
Helder  
Helder  
   Wind: WZW 20.4 km/h
Wind: WZW 20.4 km/h
Temperatuur: 24°C
Dauwpunt: 8°C
Vochtigheid: 36%
Barometer: 1022 hPa
Zicht: meer dan 10 km
Bewolking: Helder
EDLV 151320Z 25011KT 230V300 CAVOK 24/08 Q1022
 

Script ontwikkeld door  Saratoga-weather.org Aangepast voor de template door  Weerstation Leuven

U vindt ons ook hier:

Vereniging voor Weerkunde en Klimatologie

Het Weer Aktueel

WOW Nederland KNMI

UK Metoffice

European Weather Network

WeatherCloud

Weather Underground

Benelux Weer Netwerk

AWEKAS

WeatherlinkIP

Citizen Weather Observer Program (CWOP)

HAMweather, WeatherForYou, PWS Weather

        

Apparatuur in gebruik:

Weerstation
Davis - Vantage Veu

Weerprogramma
Meteobridge

Weercomputer
Carambola2 - MeteroBridge Pro (black)

Webleverancier
1Eurohosting

Hardwareleverancier 1
Uurwerk- & Meteospecialist Vlasma

Hardwareleverancier 2
Weerhuisje

Davis - Vantage Veu

Meteobridge

Carambola2 - MeteroBridge Pro (black)

1Eurohosting

Uurwerk- & Meteospecialist Vlasma

Weerhuisje


Alles over het weer rondom het weerstation van Meteo Oudkarspel, vind je hier. Dus alles onder 1 dak.

Everything about the weather around the Meteo Oudkarspel weather station can be found here. So everything under one roof..

Dus kom regelmatig terug, So come back regularly.


# #---------------------- version history # 3.20 2015-10-12 release 2.8b version